Time;durP1;ratioP1;P1;durP2;ratioP2;P2;SDS_P1;SDS_P2;PMS_P1;PMS_P2;Temp;Humidity;BMP_temperature;BMP_pressure;BME280_temperature;BME280_humidity;BME280_pressure;Samples;Min_cycle;Max_cycle;Signal;HPM_P1;HPM_P2
2021/08/29 00:00:18;;;;;;;9.63;3.77;;;16.10;99.90;;;;;;4989862;28;20211;-80
2021/08/29 00:02:44;;;;;;;6.93;3.17;;;16.10;99.90;;;;;;5006889;28;20199;-82
2021/08/29 00:05:12;;;;;;;6.90;3.10;;;16.10;99.90;;;;;;5007621;28;20905;-80
2021/08/29 00:07:39;;;;;;;7.97;3.70;;;16.10;99.90;;;;;;4990215;28;20230;-77
2021/08/29 00:10:06;;;;;;;9.07;3.53;;;16.10;99.90;;;;;;4986892;28;20203;-82
2021/08/29 00:12:35;;;;;;;5.60;3.53;;;16.10;99.90;;;;;;4988969;28;20204;-81
2021/08/29 00:15:02;;;;;;;6.70;3.30;;;16.20;99.90;;;;;;4988659;28;20204;-88
2021/08/29 00:17:28;;;;;;;6.72;3.22;;;16.20;99.90;;;;;;4992273;28;20238;-83
2021/08/29 00:19:55;;;;;;;7.22;3.67;;;16.20;99.90;;;;;;5006994;28;20199;-88
2021/08/29 00:22:22;;;;;;;9.87;3.30;;;16.10;99.90;;;;;;5007067;28;20273;-86
2021/08/29 00:24:49;;;;;;;8.83;3.63;;;16.10;99.90;;;;;;4994325;28;20258;-79
2021/08/29 00:27:16;;;;;;;8.32;3.83;;;16.10;99.90;;;;;;4987777;28;20203;-85
2021/08/29 00:29:44;;;;;;;5.68;3.33;;;16.10;99.90;;;;;;4987011;28;20871;-80
2021/08/29 00:32:12;;;;;;;6.60;3.58;;;16.10;99.90;;;;;;4987375;28;20222;-80
2021/08/29 00:34:39;;;;;;;5.85;3.55;;;16.20;99.90;;;;;;4986828;28;20680;-79
2021/08/29 00:37:06;;;;;;;5.47;3.45;;;16.10;99.90;;;;;;4987399;28;20219;-88
2021/08/29 00:39:35;;;;;;;4.60;2.85;;;16.10;99.90;;;;;;4987001;28;20200;-76
2021/08/29 00:42:02;;;;;;;7.03;3.60;;;16.10;99.90;;;;;;5008740;28;20565;-83
2021/08/29 00:44:29;;;;;;;6.97;3.60;;;16.10;99.90;;;;;;5019854;28;20203;-85
2021/08/29 00:46:57;;;;;;;7.35;3.15;;;16.00;99.90;;;;;;5012530;28;20210;-87
2021/08/29 00:49:24;;;;;;;5.03;3.30;;;16.00;99.90;;;;;;5008798;28;20603;-81
2021/08/29 00:51:51;;;;;;;6.17;3.80;;;16.00;99.90;;;;;;4992904;28;20328;-83
2021/08/29 00:54:18;;;;;;;5.93;3.67;;;16.00;99.90;;;;;;4993324;28;20228;-84
2021/08/29 00:56:45;;;;;;;8.90;3.97;;;16.00;99.90;;;;;;4994080;28;20207;-78
2021/08/29 00:59:12;;;;;;;5.97;3.10;;;16.10;99.90;;;;;;5010464;28;20214;-83
2021/08/29 01:01:43;;;;;;;5.33;3.30;;;16.00;99.90;;;;;;5012453;28;20210;-88
2021/08/29 01:04:20;;;;;;;8.02;3.90;;;15.90;99.90;;;;;;5009789;28;20207;-86
2021/08/29 01:06:52;;;;;;;6.77;3.43;;;15.90;99.90;;;;;;4991036;28;20535;-82
2021/08/29 01:09:19;;;;;;;6.30;3.53;;;15.90;99.90;;;;;;4991775;28;20223;-88
2021/08/29 01:11:51;;;;;;;6.90;3.53;;;15.90;99.90;;;;;;4992909;28;20729;-86
2021/08/29 01:14:23;;;;;;;8.60;3.90;;;15.80;99.90;;;;;;5005839;28;20207;-89
2021/08/29 01:16:55;;;;;;;6.35;3.58;;;15.80;99.90;;;;;;5009277;28;20214;-82
2021/08/29 01:19:32;;;;;;;5.47;3.60;;;15.80;99.90;;;;;;4995164;28;20215;-79
2021/08/29 01:22:01;;;;;;;6.20;3.60;;;15.80;99.90;;;;;;4987982;28;20231;-79
2021/08/29 01:24:29;;;;;;;7.43;3.60;;;15.90;99.90;;;;;;4988995;28;20207;-80
2021/08/29 01:27:00;;;;;;;7.13;3.70;;;15.90;99.90;;;;;;4989480;28;20207;-82
2021/08/29 01:29:31;;;;;;;9.60;3.53;;;15.90;99.90;;;;;;4990245;28;20231;-82
2021/08/29 01:31:59;;;;;;;6.67;3.63;;;15.90;99.90;;;;;;4989464;28;20210;-86
2021/08/29 01:34:27;;;;;;;8.37;4.13;;;15.90;99.90;;;;;;4988209;28;20511;-86
2021/08/29 01:36:55;;;;;;;11.63;3.50;;;15.90;99.90;;;;;;4988459;28;20586;-77
2021/08/29 01:39:23;;;;;;;4.53;3.40;;;16.00;99.90;;;;;;4988147;28;20207;-88
2021/08/29 01:41:51;;;;;;;6.60;3.43;;;16.00;99.90;;;;;;4986670;28;20227;-79
2021/08/29 01:44:19;;;;;;;6.90;3.50;;;16.00;99.90;;;;;;4990755;28;20589;-81
2021/08/29 01:46:48;;;;;;;7.72;3.78;;;16.00;99.90;;;;;;4991225;28;20325;-84
2021/08/29 01:49:16;;;;;;;7.17;3.77;;;15.90;99.90;;;;;;4991367;28;20718;-79
2021/08/29 01:51:43;;;;;;;9.83;3.63;;;15.90;99.90;;;;;;4991525;28;20211;-80
2021/08/29 01:54:10;;;;;;;7.72;3.88;;;15.90;99.90;;;;;;4991175;28;20224;-82
2021/08/29 01:57:03;;;;;;;5.32;3.83;;;15.90;99.90;;;;;;4991053;28;20199;-82
2021/08/29 01:59:30;;;;;;;5.27;3.20;;;16.00;99.90;;;;;;5006402;28;20241;-79
2021/08/29 02:01:59;;;;;;;8.13;3.33;;;16.00;99.90;;;;;;5008427;28;20218;-81
2021/08/29 02:04:27;;;;;;;7.68;3.53;;;16.00;99.90;;;;;;5009733;28;20203;-86
2021/08/29 02:07:15;;;;;;;7.90;3.13;;;16.00;99.90;;;;;;5006209;28;20216;-78
2021/08/29 02:09:48;;;;;;;5.47;3.05;;;16.00;99.90;;;;;;4994933;28;20300;-88
2021/08/29 02:12:16;;;;;;;9.37;3.87;;;16.00;99.90;;;;;;4991303;28;20204;-76
2021/08/29 02:14:49;;;;;;;5.27;3.30;;;16.00;99.90;;;;;;4991236;28;20207;-79
2021/08/29 02:17:19;;;;;;;7.07;3.37;;;16.00;99.90;;;;;;4989376;28;20196;-80
2021/08/29 02:19:47;;;;;;;7.13;3.17;;;16.00;99.90;;;;;;4989682;28;20589;-79
2021/08/29 02:22:15;;;;;;;7.43;3.27;;;16.00;99.90;;;;;;4989700;28;20243;-85
2021/08/29 02:24:43;;;;;;;6.07;2.83;;;16.00;99.90;;;;;;4989721;28;20214;-87
2021/08/29 02:27:11;;;;;;;6.35;3.08;;;16.10;99.90;;;;;;4991055;28;20246;-79
2021/08/29 02:29:38;;;;;;;7.20;3.23;;;16.10;99.90;;;;;;4990089;28;20304;-78
2021/08/29 02:32:07;;;;;;;7.90;3.38;;;16.10;99.90;;;;;;4989193;28;20207;-79
2021/08/29 02:34:35;;;;;;;6.80;3.38;;;16.10;99.90;;;;;;4990685;28;20219;-78
2021/08/29 02:37:03;;;;;;;6.63;3.00;;;16.10;99.90;;;;;;4989871;28;20215;-82
2021/08/29 02:39:31;;;;;;;7.17;2.70;;;16.10;99.90;;;;;;4989786;28;20208;-83
2021/08/29 02:41:58;;;;;;;6.40;2.90;;;16.10;99.90;;;;;;4989983;28;20211;-81
2021/08/29 02:44:27;;;;;;;6.27;3.17;;;16.20;99.90;;;;;;4990038;28;20690;-88
2021/08/29 02:46:53;;;;;;;4.03;2.57;;;16.20;99.90;;;;;;4989836;28;20219;-85
2021/08/29 02:49:21;;;;;;;7.93;2.70;;;16.20;99.90;;;;;;4990848;28;20231;-83
2021/08/29 02:51:51;;;;;;;7.87;2.93;;;16.10;99.90;;;;;;4989331;28;20697;-84
2021/08/29 02:54:19;;;;;;;5.13;2.50;;;16.20;99.90;;;;;;4990788;28;20588;-88
2021/08/29 02:56:48;;;;;;;6.73;2.63;;;16.20;99.90;;;;;;4990809;28;20213;-86
2021/08/29 02:59:15;;;;;;;7.63;2.83;;;16.20;99.90;;;;;;4994492;28;20916;-84
2021/08/29 03:01:42;;;;;;;8.70;3.33;;;16.20;99.90;;;;;;5008820;28;20214;-77
2021/08/29 03:04:09;;;;;;;9.30;3.20;;;16.30;99.90;;;;;;5008651;28;20704;-89
2021/08/29 03:06:37;;;;;;;8.33;2.50;;;16.20;99.90;;;;;;5007227;28;20203;-87
2021/08/29 03:09:06;;;;;;;6.77;2.67;;;16.20;99.90;;;;;;5008852;28;20222;-87
2021/08/29 03:11:33;;;;;;;9.93;2.67;;;16.30;99.90;;;;;;5007516;28;20207;-80
2021/08/29 03:14:01;;;;;;;17.03;5.23;;;16.30;99.90;;;;;;4990109;28;20628;-83
2021/08/29 03:16:30;;;;;;;7.43;2.93;;;16.30;99.90;;;;;;4988849;28;20204;-86
2021/08/29 03:18:58;;;;;;;9.80;3.10;;;16.30;99.90;;;;;;4986787;28;20231;-78
2021/08/29 03:21:25;;;;;;;10.40;3.08;;;16.30;99.90;;;;;;4987466;28;20711;-82
2021/08/29 03:23:53;;;;;;;10.50;3.03;;;16.30;99.90;;;;;;4987857;28;20600;-83
2021/08/29 03:26:21;;;;;;;8.57;3.08;;;16.40;99.90;;;;;;5001761;28;20219;-85
2021/08/29 03:28:49;;;;;;;10.23;3.27;;;16.30;99.90;;;;;;5009904;28;20222;-78
2021/08/29 03:31:16;;;;;;;5.47;2.70;;;16.30;99.90;;;;;;4995289;28;20200;-79
2021/08/29 03:33:47;;;;;;;10.50;3.17;;;16.30;99.90;;;;;;4989541;28;20246;-87
2021/08/29 03:36:20;;;;;;;7.43;3.03;;;16.30;99.90;;;;;;4989843;28;20235;-89
2021/08/29 03:38:47;;;;;;;9.30;2.70;;;16.40;99.90;;;;;;4990159;28;20254;-88
2021/08/29 03:41:16;;;;;;;9.17;2.87;;;16.30;99.90;;;;;;5008513;28;20211;-87
2021/08/29 03:43:45;;;;;;;8.90;3.20;;;16.40;99.90;;;;;;5009624;28;20209;-85
2021/08/29 03:46:13;;;;;;;8.80;2.80;;;16.40;99.90;;;;;;5009421;28;20211;-82
2021/08/29 03:48:40;;;;;;;7.57;2.77;;;16.40;99.90;;;;;;5003096;28;20235;-84
2021/08/29 03:51:07;;;;;;;13.27;3.47;;;16.40;99.90;;;;;;4989784;28;20200;-81
2021/08/29 03:53:35;;;;;;;7.80;2.50;;;16.40;99.90;;;;;;4989642;28;20228;-83
2021/08/29 03:56:02;;;;;;;8.70;2.90;;;16.40;99.90;;;;;;4999288;28;20207;-87
2021/08/29 03:58:29;;;;;;;11.93;3.47;;;16.50;99.90;;;;;;5006728;28;20566;-82
2021/08/29 04:00:58;;;;;;;10.25;2.67;;;16.50;99.90;;;;;;5005094;28;20214;-81
2021/08/29 04:03:26;;;;;;;9.02;3.50;;;16.50;99.90;;;;;;5004092;28;20289;-78
2021/08/29 04:05:54;;;;;;;7.70;2.70;;;16.40;99.90;;;;;;4986975;28;20262;-84
2021/08/29 04:08:28;;;;;;;11.30;2.97;;;16.50;99.90;;;;;;4986449;28;20211;-79
2021/08/29 04:10:58;;;;;;;8.43;2.92;;;16.50;99.90;;;;;;4985175;28;20566;-81
2021/08/29 04:13:26;;;;;;;7.07;2.78;;;16.50;99.90;;;;;;5005983;28;20199;-82
2021/08/29 04:15:53;;;;;;;6.80;2.35;;;16.50;99.90;;;;;;5000628;28;20200;-80
2021/08/29 04:18:22;;;;;;;5.93;2.60;;;16.50;99.90;;;;;;4990762;28;20242;-78
2021/08/29 04:20:50;;;;;;;10.90;3.50;;;16.50;99.90;;;;;;4990441;28;20235;-79
2021/08/29 04:23:17;;;;;;;7.30;2.60;;;16.50;99.90;;;;;;4991023;28;20203;-80
2021/08/29 04:25:45;;;;;;;10.90;2.38;;;16.50;99.90;;;;;;4990314;28;20199;-84
2021/08/29 04:28:12;;;;;;;5.03;2.30;;;16.40;99.90;;;;;;4990448;28;20504;-84
2021/08/29 04:30:40;;;;;;;7.50;3.08;;;16.40;99.90;;;;;;4989852;28;20227;-88
2021/08/29 04:33:07;;;;;;;5.05;2.42;;;16.40;99.90;;;;;;4991038;28;20254;-84
2021/08/29 04:35:36;;;;;;;10.18;3.13;;;16.40;99.90;;;;;;4992962;28;20604;-84
2021/08/29 04:38:03;;;;;;;7.70;3.22;;;16.50;99.90;;;;;;4990387;28;20236;-77
2021/08/29 04:40:30;;;;;;;8.15;2.67;;;16.50;99.90;;;;;;4991819;28;20212;-77
2021/08/29 04:42:57;;;;;;;7.88;2.95;;;16.50;99.90;;;;;;4996606;28;20211;-85
2021/08/29 04:45:23;;;;;;;11.70;3.78;;;16.50;99.90;;;;;;5011509;28;20206;-86
2021/08/29 04:47:50;;;;;;;11.27;3.40;;;16.50;99.90;;;;;;5010006;28;20215;-87
2021/08/29 04:50:17;;;;;;;10.53;3.17;;;16.50;99.90;;;;;;5011604;28;20227;-86
2021/08/29 04:52:45;;;;;;;13.60;3.80;;;16.50;99.90;;;;;;5002549;28;20258;-77
2021/08/29 04:55:12;;;;;;;8.98;3.05;;;16.50;99.90;;;;;;4992337;28;20204;-80
2021/08/29 04:57:39;;;;;;;8.88;2.80;;;16.50;99.90;;;;;;4991463;28;20844;-80
2021/08/29 05:00:07;;;;;;;6.73;2.80;;;16.50;99.90;;;;;;4990143;28;20212;-81
2021/08/29 05:02:34;;;;;;;10.45;2.85;;;16.50;99.90;;;;;;4991943;28;20203;-81
2021/08/29 05:05:01;;;;;;;9.73;3.28;;;16.50;99.90;;;;;;4991320;28;20200;-92
2021/08/29 05:07:27;;;;;;;5.47;2.60;;;16.50;99.90;;;;;;4990530;28;20204;-91
2021/08/29 05:09:56;;;;;;;9.27;3.20;;;16.50;99.90;;;;;;4990957;28;20538;-87
2021/08/29 05:12:22;;;;;;;10.25;2.92;;;16.50;99.90;;;;;;4992057;28;20211;-78
2021/08/29 05:14:49;;;;;;;7.70;2.97;;;16.50;99.90;;;;;;4990840;28;20219;-78
2021/08/29 05:17:16;;;;;;;11.75;2.95;;;16.50;99.90;;;;;;4991783;28;20204;-80
2021/08/29 05:19:43;;;;;;;13.48;3.65;;;16.50;99.90;;;;;;4991963;28;20268;-79
2021/08/29 05:22:10;;;;;;;13.15;2.63;;;16.50;99.90;;;;;;4991327;28;20251;-85
2021/08/29 05:24:37;;;;;;;9.53;3.20;;;16.50;99.90;;;;;;4991107;28;20516;-89
2021/08/29 05:27:05;;;;;;;9.75;2.50;;;16.50;99.90;;;;;;4991184;28;20215;-85
2021/08/29 05:29:32;;;;;;;7.65;2.60;;;16.50;99.90;;;;;;4990701;28;20281;-81
2021/08/29 05:31:59;;;;;;;5.90;2.30;;;16.50;99.90;;;;;;4989640;28;20556;-79
2021/08/29 05:34:25;;;;;;;11.88;3.38;;;16.60;99.90;;;;;;4991260;28;20196;-77
2021/08/29 05:36:52;;;;;;;9.90;2.55;;;16.50;99.90;;;;;;4992139;28;20263;-87
2021/08/29 05:39:19;;;;;;;6.50;2.38;;;16.60;99.90;;;;;;5000548;28;20207;-79
2021/08/29 05:41:46;;;;;;;9.60;2.72;;;16.60;99.90;;;;;;5008697;28;20214;-79
2021/08/29 05:44:14;;;;;;;9.88;2.95;;;16.60;99.90;;;;;;4990774;28;20219;-88
2021/08/29 05:46:42;;;;;;;9.67;3.30;;;16.60;99.90;;;;;;4988188;28;20219;-88
2021/08/29 05:49:09;;;;;;;9.85;3.17;;;16.60;99.90;;;;;;4988458;28;20224;-80
2021/08/29 05:51:35;;;;;;;9.13;2.88;;;16.60;99.90;;;;;;4988340;28;20246;-81
2021/08/29 05:54:02;;;;;;;10.60;3.03;;;16.70;99.90;;;;;;4988649;28;20235;-78
2021/08/29 05:56:29;;;;;;;6.40;2.30;;;16.70;99.90;;;;;;4988419;28;20608;-84
2021/08/29 05:58:56;;;;;;;9.75;3.25;;;16.70;99.90;;;;;;4988013;28;20211;-87
2021/08/29 06:01:24;;;;;;;6.22;2.55;;;16.70;99.90;;;;;;5000422;28;20251;-80
2021/08/29 06:03:51;;;;;;;8.57;3.00;;;16.70;99.90;;;;;;4993057;28;20223;-84
2021/08/29 06:06:18;;;;;;;11.38;3.13;;;16.80;99.90;;;;;;4992926;28;20204;-85
2021/08/29 06:08:44;;;;;;;8.15;3.35;;;16.80;99.90;;;;;;4992077;28;20196;-85
2021/08/29 06:11:12;;;;;;;13.35;3.88;;;16.80;99.90;;;;;;5008095;28;20227;-79
2021/08/29 06:13:39;;;;;;;9.73;3.00;;;16.80;99.90;;;;;;5010866;28;20199;-89
2021/08/29 06:16:06;;;;;;;11.27;3.03;;;16.80;99.90;;;;;;5010454;28;20622;-85
2021/08/29 06:18:34;;;;;;;8.98;3.20;;;16.80;99.90;;;;;;4998590;28;20215;-87
2021/08/29 06:21:01;;;;;;;7.57;2.97;;;16.80;99.90;;;;;;4987767;28;20247;-81
2021/08/29 06:23:27;;;;;;;10.65;2.70;;;16.90;99.90;;;;;;4989792;28;20207;-79
2021/08/29 06:25:54;;;;;;;9.63;3.53;;;16.90;99.90;;;;;;4987031;28;20566;-79
2021/08/29 06:28:21;;;;;;;9.52;3.20;;;16.90;99.90;;;;;;4987476;28;20355;-79
2021/08/29 06:30:48;;;;;;;9.50;3.03;;;17.00;99.90;;;;;;4986175;28;20647;-81
2021/08/29 06:33:14;;;;;;;7.97;2.50;;;17.00;99.90;;;;;;4988496;28;20557;-79
2021/08/29 06:35:42;;;;;;;8.88;2.50;;;17.00;99.90;;;;;;4988024;28;20211;-80
2021/08/29 06:38:09;;;;;;;7.05;2.65;;;17.10;99.90;;;;;;4988171;28;20620;-79
2021/08/29 06:40:36;;;;;;;8.82;4.05;;;17.10;99.90;;;;;;4987847;28;20204;-79
2021/08/29 06:43:03;;;;;;;11.25;3.38;;;17.10;99.90;;;;;;4986895;28;20941;-79
2021/08/29 06:45:30;;;;;;;10.25;3.25;;;17.10;99.90;;;;;;4988841;28;20212;-84
2021/08/29 06:47:57;;;;;;;8.60;3.20;;;17.20;99.90;;;;;;4987622;28;20208;-82
2021/08/29 06:50:23;;;;;;;8.77;2.95;;;17.20;99.90;;;;;;4987684;28;20228;-89
2021/08/29 06:52:52;;;;;;;10.43;3.17;;;17.20;99.90;;;;;;4986960;28;20223;-82
2021/08/29 06:55:18;;;;;;;11.75;3.25;;;17.20;99.90;;;;;;4986809;28;20200;-81
2021/08/29 06:57:45;;;;;;;10.13;3.70;;;17.30;99.90;;;;;;4986835;28;20216;-80
2021/08/29 07:00:12;;;;;;;11.20;3.22;;;17.30;99.90;;;;;;4990044;28;20211;-81
2021/08/29 07:02:39;;;;;;;10.45;3.22;;;17.30;99.90;;;;;;5006353;28;20196;-80
2021/08/29 07:05:32;;;;;;;9.88;2.65;;;17.30;99.90;;;;;;4999989;28;20580;-87
2021/08/29 07:08:00;;;;;;;8.85;3.40;;;17.30;99.90;;;;;;4993468;28;20212;-83
2021/08/29 07:10:27;;;;;;;14.18;3.72;;;17.40;99.90;;;;;;4987526;28;20224;-78
2021/08/29 07:12:54;;;;;;;11.30;3.25;;;17.40;99.90;;;;;;4986764;28;20212;-80
2021/08/29 07:15:21;;;;;;;15.48;3.42;;;17.50;99.90;;;;;;4987377;28;20208;-83
2021/08/29 07:17:48;;;;;;;12.23;3.05;;;17.50;99.90;;;;;;4996857;28;20677;-82
2021/08/29 07:20:15;;;;;;;8.52;3.25;;;17.50;99.90;;;;;;5004919;28;20210;-81
2021/08/29 07:26:05;;;;;;;7.75;3.33;;;17.70;99.90;;;;;;4936033;28;20361;-77
2021/08/29 07:28:32;;;;;;;18.58;3.67;;;17.80;99.90;;;;;;4988170;28;20196;-76
2021/08/29 07:30:58;;;;;;;11.10;3.03;;;17.90;99.90;;;;;;4988968;28;20243;-84
2021/08/29 07:33:25;;;;;;;11.98;2.97;;;18.00;99.90;;;;;;4988802;28;20214;-88
2021/08/29 07:35:52;;;;;;;11.82;3.47;;;18.00;99.90;;;;;;4987372;28;20204;-81
2021/08/29 07:38:19;;;;;;;11.30;3.17;;;17.90;99.90;;;;;;4988667;28;20208;-83
2021/08/29 07:40:46;;;;;;;10.13;3.03;;;18.10;99.90;;;;;;4993529;28;20207;-89
2021/08/29 07:43:14;;;;;;;8.80;3.22;;;18.00;99.90;;;;;;5008175;28;20199;-86
2021/08/29 07:45:40;;;;;;;9.27;3.47;;;18.00;99.90;;;;;;5002007;28;20208;-84
2021/08/29 07:48:07;;;;;;;9.70;2.78;;;18.00;99.90;;;;;;4988301;28;20192;-78
2021/08/29 07:50:34;;;;;;;11.00;3.78;;;18.00;99.90;;;;;;4986357;28;20235;-81
2021/08/29 07:53:01;;;;;;;14.68;3.30;;;18.00;99.90;;;;;;4986958;28;20808;-86
2021/08/29 07:55:28;;;;;;;11.90;3.10;;;18.00;99.90;;;;;;4986139;28;20671;-87
2021/08/29 07:57:55;;;;;;;13.82;3.33;;;18.00;99.90;;;;;;4985922;28;20204;-88
2021/08/29 08:00:23;;;;;;;9.25;3.22;;;18.00;99.90;;;;;;4985751;28;20204;-88
2021/08/29 08:02:50;;;;;;;14.75;3.33;;;18.10;99.90;;;;;;4988015;28;20518;-85
2021/08/29 08:05:17;;;;;;;11.60;3.47;;;18.00;99.90;;;;;;4994811;28;20445;-90
2021/08/29 08:07:44;;;;;;;14.55;4.30;;;18.10;99.90;;;;;;4988655;28;20204;-86
2021/08/29 08:10:11;;;;;;;9.55;3.05;;;18.10;99.90;;;;;;4988043;28;20231;-86
2021/08/29 08:12:38;;;;;;;11.48;3.53;;;18.10;99.90;;;;;;4986712;28;20223;-89
2021/08/29 08:15:06;;;;;;;9.90;3.63;;;18.10;99.90;;;;;;4986401;28;20513;-89
2021/08/29 08:17:35;;;;;;;13.70;3.40;;;18.10;99.90;;;;;;4988177;28;20204;-84
2021/08/29 08:20:01;;;;;;;10.85;3.17;;;18.10;99.90;;;;;;4988189;28;20200;-85
2021/08/29 08:22:28;;;;;;;8.43;2.90;;;18.10;99.90;;;;;;4987512;28;20236;-83
2021/08/29 08:24:55;;;;;;;9.60;3.17;;;18.10;99.90;;;;;;5000533;28;20219;-86
2021/08/29 08:27:22;;;;;;;9.25;3.00;;;18.20;99.90;;;;;;5007026;28;20588;-83
2021/08/29 08:29:48;;;;;;;8.88;2.67;;;18.20;99.90;;;;;;4987965;28;20226;-90
2021/08/29 08:32:15;;;;;;;10.63;3.38;;;18.20;99.90;;;;;;4987013;28;20208;-81
2021/08/29 08:34:44;;;;;;;14.05;3.65;;;18.20;99.90;;;;;;4987440;28;20208;-82
2021/08/29 08:37:10;;;;;;;10.55;3.03;;;18.20;99.90;;;;;;4985578;28;20258;-79
2021/08/29 08:39:37;;;;;;;10.15;3.03;;;18.20;99.90;;;;;;4988236;28;20204;-85
2021/08/29 08:42:05;;;;;;;10.35;3.35;;;18.20;99.90;;;;;;4986369;28;20212;-86
2021/08/29 08:44:32;;;;;;;12.48;3.10;;;18.20;99.90;;;;;;4999949;28;20587;-85
2021/08/29 08:47:05;;;;;;;13.52;3.38;;;18.30;99.90;;;;;;5007066;28;20203;-84
2021/08/29 08:49:34;;;;;;;10.50;3.00;;;18.30;99.90;;;;;;5000998;28;20204;-93
2021/08/29 08:52:09;;;;;;;8.75;2.63;;;18.20;99.90;;;;;;4987433;28;20223;-83
2021/08/29 08:54:39;;;;;;;15.70;3.90;;;18.30;99.90;;;;;;4987342;28;20216;-91
2021/08/29 08:57:07;;;;;;;9.85;2.95;;;18.20;99.90;;;;;;4987847;28;20578;-84
2021/08/29 08:59:34;;;;;;;6.85;2.53;;;18.30;99.90;;;;;;4987416;28;20208;-80
2021/08/29 09:02:01;;;;;;;14.50;3.25;;;18.20;99.90;;;;;;4988762;28;20627;-86
2021/08/29 09:04:27;;;;;;;18.13;3.78;;;18.10;99.90;;;;;;4990060;28;20203;-84
2021/08/29 09:06:54;;;;;;;11.80;3.58;;;18.20;99.90;;;;;;4989561;28;20656;-86
2021/08/29 09:09:23;;;;;;;12.15;3.08;;;18.30;99.90;;;;;;4990419;28;20211;-82
2021/08/29 09:11:49;;;;;;;11.68;3.17;;;18.30;99.90;;;;;;4988201;28;20516;-80
2021/08/29 09:14:16;;;;;;;12.27;3.47;;;18.30;99.90;;;;;;4989855;28;20208;-84
2021/08/29 09:16:51;;;;;;;10.68;3.00;;;18.30;99.90;;;;;;4988294;28;20219;-85
2021/08/29 09:19:19;;;;;;;10.95;3.22;;;18.30;99.90;;;;;;4988106;28;20596;-81
2021/08/29 09:21:46;;;;;;;9.63;3.55;;;18.40;99.90;;;;;;4986774;28;20240;-84
2021/08/29 09:24:15;;;;;;;16.25;3.45;;;18.40;99.90;;;;;;4988416;28;20333;-81
2021/08/29 09:26:45;;;;;;;13.07;3.60;;;18.40;99.90;;;;;;4991015;28;20199;-87
2021/08/29 09:29:20;;;;;;;13.55;3.03;;;18.40;99.90;;;;;;4991338;28;20208;-79
2021/08/29 09:31:48;;;;;;;13.93;2.85;;;18.40;99.90;;;;;;4989879;28;20302;-83
2021/08/29 09:34:19;;;;;;;9.70;3.03;;;18.40;99.90;;;;;;4991157;28;20632;-80
2021/08/29 09:36:47;;;;;;;11.20;2.70;;;18.40;99.90;;;;;;4989085;28;20203;-81
2021/08/29 09:39:15;;;;;;;9.52;3.20;;;18.30;99.90;;;;;;4989008;28;20204;-79
2021/08/29 09:41:45;;;;;;;15.13;3.58;;;18.30;99.90;;;;;;5002819;28;20203;-80
2021/08/29 09:44:14;;;;;;;10.70;2.95;;;18.30;99.90;;;;;;5006717;28;20203;-83
2021/08/29 09:46:59;;;;;;;15.68;3.70;;;18.20;99.90;;;;;;4987569;28;20211;-87
2021/08/29 09:49:27;;;;;;;15.45;4.10;;;18.20;99.90;;;;;;4988787;28;20204;-84
2021/08/29 09:51:55;;;;;;;14.73;3.50;;;18.10;99.90;;;;;;4988061;28;20231;-85
2021/08/29 09:54:33;;;;;;;12.07;3.50;;;18.10;99.90;;;;;;4989018;28;20323;-81
2021/08/29 09:57:05;;;;;;;13.70;3.97;;;18.00;99.90;;;;;;4991983;28;20568;-85
2021/08/29 09:59:39;;;;;;;12.60;4.13;;;18.00;99.90;;;;;;4991086;28;20200;-85
2021/08/29 10:02:06;;;;;;;13.05;3.90;;;18.00;99.90;;;;;;4991162;28;20204;-83
2021/08/29 10:04:33;;;;;;;16.33;4.10;;;18.00;99.90;;;;;;4989729;28;20219;-90
2021/08/29 10:07:11;;;;;;;12.07;3.50;;;18.00;99.90;;;;;;4990577;28;20207;-82
2021/08/29 10:09:38;;;;;;;13.20;3.28;;;18.00;99.90;;;;;;4988341;28;20648;-80
2021/08/29 10:12:08;;;;;;;12.30;3.35;;;18.00;99.90;;;;;;4988893;28;20228;-83
2021/08/29 10:14:37;;;;;;;17.25;4.13;;;18.10;99.90;;;;;;4987908;28;20208;-80
2021/08/29 10:17:05;;;;;;;10.40;3.33;;;18.10;99.90;;;;;;4992416;28;20211;-82
2021/08/29 10:19:34;;;;;;;10.52;3.13;;;18.00;99.90;;;;;;4988141;28;20215;-83
2021/08/29 10:22:01;;;;;;;16.13;3.90;;;18.10;99.90;;;;;;4985831;28;20247;-83
2021/08/29 10:24:30;;;;;;;11.05;3.63;;;18.20;99.90;;;;;;4986975;28;20588;-79
2021/08/29 10:27:03;;;;;;;20.23;4.93;;;18.30;99.90;;;;;;4987598;28;20196;-83
2021/08/29 10:29:35;;;;;;;13.75;3.83;;;18.30;99.90;;;;;;5004264;28;20199;-85
2021/08/29 10:32:09;;;;;;;20.08;3.78;;;18.30;99.90;;;;;;5000571;28;20220;-89
2021/08/29 10:34:38;;;;;;;14.23;3.72;;;18.30;99.90;;;;;;4988578;28;20674;-84
2021/08/29 10:37:05;;;;;;;13.52;3.90;;;18.30;99.90;;;;;;4989834;28;20210;-85
2021/08/29 10:39:32;;;;;;;12.93;3.58;;;18.20;99.90;;;;;;4990339;28;20230;-87
2021/08/29 10:42:01;;;;;;;15.32;3.75;;;18.20;99.90;;;;;;4989447;28;20651;-88
2021/08/29 10:44:28;;;;;;;18.17;3.65;;;18.20;99.90;;;;;;4989383;28;20235;-79
2021/08/29 10:46:57;;;;;;;14.48;3.88;;;18.20;99.90;;;;;;4988670;28;20204;-81
2021/08/29 10:49:24;;;;;;;14.40;4.72;;;18.10;99.90;;;;;;4990394;28;20215;-87
2021/08/29 10:51:53;;;;;;;17.13;4.30;;;18.10;99.90;;;;;;4989036;28;20230;-83
2021/08/29 10:54:19;;;;;;;11.10;3.15;;;18.10;99.90;;;;;;4988924;28;20262;-83
2021/08/29 10:56:47;;;;;;;13.15;4.32;;;18.10;99.90;;;;;;4987724;28;20200;-80
2021/08/29 10:59:27;;;;;;;14.15;4.10;;;18.00;99.90;;;;;;4988551;28;20207;-80
2021/08/29 11:02:11;;;;;;;15.68;4.10;;;18.00;99.90;;;;;;4987599;28;20216;-85
2021/08/29 11:04:58;;;;;;;18.63;4.00;;;17.90;99.90;;;;;;4988044;28;20848;-79
2021/08/29 11:07:45;;;;;;;11.88;4.10;;;17.80;99.90;;;;;;4983745;28;20208;-79
2021/08/29 11:10:14;;;;;;;16.23;4.13;;;17.80;99.90;;;;;;4993721;28;20755;-88
2021/08/29 11:12:41;;;;;;;13.38;4.38;;;17.80;99.90;;;;;;5001318;28;20235;-82
2021/08/29 11:15:10;;;;;;;20.90;4.63;;;17.80;99.90;;;;;;4991734;28;20208;-78
2021/08/29 11:17:39;;;;;;;14.68;3.55;;;17.80;99.90;;;;;;4991264;28;20207;-80
2021/08/29 11:20:12;;;;;;;18.30;4.82;;;17.80;99.90;;;;;;4988546;28;20615;-79
2021/08/29 11:22:40;;;;;;;12.15;3.80;;;17.80;99.90;;;;;;4989371;28;20242;-81
2021/08/29 11:25:23;;;;;;;19.05;4.72;;;17.80;99.90;;;;;;4987536;28;20214;-79
2021/08/29 11:28:05;;;;;;;22.63;5.70;;;17.80;99.90;;;;;;4988552;28;20203;-81
2021/08/29 11:30:45;;;;;;;17.90;4.82;;;17.80;99.90;;;;;;4989301;28;20211;-79
2021/08/29 11:33:17;;;;;;;16.45;5.25;;;17.70;99.90;;;;;;4988243;28;20234;-81
2021/08/29 11:35:47;;;;;;;23.00;5.30;;;17.70;99.90;;;;;;4987792;28;20195;-80
2021/08/29 11:38:17;;;;;;;19.38;4.80;;;17.70;99.90;;;;;;5007480;28;20226;-86
2021/08/29 11:40:56;;;;;;;15.35;4.75;;;17.60;99.90;;;;;;5007493;28;20226;-84
2021/08/29 11:43:34;;;;;;;13.95;4.30;;;17.70;99.90;;;;;;5007526;28;20203;-79
2021/08/29 11:46:08;;;;;;;13.65;4.38;;;17.70;99.90;;;;;;5004428;28;20221;-82
2021/08/29 11:48:37;;;;;;;13.73;4.05;;;17.70;99.90;;;;;;5007427;28;20207;-84
2021/08/29 11:51:04;;;;;;;11.90;3.50;;;17.70;99.90;;;;;;5006675;28;20238;-80
2021/08/29 11:53:43;;;;;;;17.77;4.63;;;17.70;99.90;;;;;;5006237;28;20241;-84
2021/08/29 11:56:10;;;;;;;16.27;5.18;;;17.70;99.90;;;;;;5007147;28;20222;-83
2021/08/29 11:58:37;;;;;;;15.35;4.30;;;17.70;99.90;;;;;;5006712;28;20208;-83
2021/08/29 12:01:06;;;;;;;12.43;4.20;;;17.70;99.90;;;;;;4988926;28;20216;-81
2021/08/29 12:03:46;;;;;;;14.07;4.20;;;17.80;99.90;;;;;;4985569;28;20212;-82
2021/08/29 12:06:22;;;;;;;16.33;5.10;;;17.70;99.90;;;;;;4986591;28;20218;-81
2021/08/29 12:09:13;;;;;;;19.20;4.47;;;17.70;99.90;;;;;;4987102;28;20216;-83
2021/08/29 12:11:41;;;;;;;14.35;4.35;;;17.70;99.90;;;;;;4988194;28;20216;-85
2021/08/29 12:14:14;;;;;;;21.73;5.40;;;17.70;99.90;;;;;;4986931;28;20482;-84
2021/08/29 12:16:47;;;;;;;18.15;5.05;;;17.70;99.90;;;;;;4988140;28;20210;-82
2021/08/29 12:19:16;;;;;;;19.77;5.00;;;17.70;99.90;;;;;;4987894;28;20274;-82
2021/08/29 12:21:44;;;;;;;17.75;4.38;;;17.70;99.90;;;;;;4986716;28;20330;-83
2021/08/29 12:24:12;;;;;;;13.57;4.00;;;17.70;99.90;;;;;;4970681;28;20211;-83
2021/08/29 12:26:39;;;;;;;13.82;4.13;;;17.70;99.90;;;;;;4987363;28;20211;-82
2021/08/29 12:29:08;;;;;;;14.48;4.40;;;17.70;99.90;;;;;;4987291;28;20207;-81
2021/08/29 12:31:39;;;;;;;12.07;4.68;;;17.60;99.90;;;;;;4986532;28;20235;-80
2021/08/29 12:34:07;;;;;;;10.60;3.97;;;17.60;99.90;;;;;;4986452;28;20223;-81
2021/08/29 12:36:36;;;;;;;9.85;4.28;;;17.60;99.90;;;;;;5003371;28;20347;-84
2021/08/29 12:39:09;;;;;;;17.23;4.97;;;17.60;99.90;;;;;;5010253;28;20203;-81
2021/08/29 12:41:37;;;;;;;12.73;4.85;;;17.60;99.90;;;;;;5008476;28;20873;-80
2021/08/29 12:44:05;;;;;;;12.25;4.13;;;17.50;99.90;;;;;;4990282;28;20619;-81
2021/08/29 12:46:32;;;;;;;8.88;4.00;;;17.60;99.90;;;;;;4990261;28;20475;-88
2021/08/29 12:49:00;;;;;;;9.93;3.90;;;17.70;99.90;;;;;;4995090;28;20588;-80
2021/08/29 12:51:28;;;;;;;8.98;4.07;;;17.80;99.90;;;;;;5008836;28;20288;-81
2021/08/29 12:54:00;;;;;;;8.80;4.10;;;17.80;99.90;;;;;;4991514;28;21076;-82